Time;durP1;ratioP1;P1;durP2;ratioP2;P2;SDS_P1;SDS_P2;PMS_P1;PMS_P2;Temp;Humidity;BMP_temperature;BMP_pressure;BME280_temperature;BME280_humidity;BME280_pressure;Samples;Min_cycle;Max_cycle;Signal;HPM_P1;HPM_P2
2022/07/08 00:01:51;;;;;;;;;;;14.80;99.90;;;;;;5093756;28;20230;-62
2022/07/08 00:04:16;;;;;;;;;;;14.40;99.90;;;;;;5093535;28;19924;-62
2022/07/08 00:06:42;;;;;;;;;;;14.80;99.90;;;;;;5093362;28;19920;-61
2022/07/08 00:09:10;;;;;;;;;;;14.60;99.90;;;;;;5093328;28;20105;-63
2022/07/08 00:11:36;;;;;;;;;;;14.50;99.90;;;;;;5093214;28;20256;-63
2022/07/08 00:14:02;;;;;;;;;;;14.60;99.90;;;;;;5093227;28;19927;-62
2022/07/08 00:16:28;;;;;;;;;;;14.60;99.90;;;;;;5093201;28;20295;-64
2022/07/08 00:18:54;;;;;;;;;;;14.60;99.90;;;;;;5093112;28;19935;-64
2022/07/08 00:21:20;;;;;;;;;;;14.40;99.90;;;;;;5093055;28;19920;-63
2022/07/08 00:23:46;;;;;;;;;;;14.60;99.90;;;;;;5093024;28;19920;-63
2022/07/08 00:26:12;;;;;;;;;;;14.50;99.90;;;;;;5092036;28;20287;-62
2022/07/08 00:28:38;;;;;;;;;;;14.50;99.90;;;;;;5092942;28;19920;-62
2022/07/08 00:31:03;;;;;;;;;;;14.30;99.90;;;;;;5092522;28;19928;-63
2022/07/08 00:33:29;;;;;;;;;;;14.80;99.90;;;;;;5092800;28;20318;-64
2022/07/08 00:35:54;;;;;;;;;;;14.60;99.90;;;;;;5092908;28;19924;-64
2022/07/08 00:38:20;;;;;;;;;;;14.60;99.90;;;;;;5092766;28;19924;-64
2022/07/08 00:40:45;;;;;;;;;;;14.50;99.90;;;;;;5092827;28;19924;-63
2022/07/08 00:43:32;;;;;;;;;;;14.50;99.90;;;;;;5092742;28;20370;-63
2022/07/08 00:45:58;;;;;;;;;;;14.50;99.90;;;;;;5092782;28;20256;-63
2022/07/08 00:48:23;;;;;;;;;;;14.10;99.90;;;;;;5092694;28;19935;-64
2022/07/08 00:50:49;;;;;;;;;;;14.40;99.90;;;;;;5092654;28;20027;-64
2022/07/08 00:53:16;;;;;;;;;;;14.50;99.90;;;;;;5092210;28;19931;-63
2022/07/08 00:55:41;;;;;;;;;;;14.50;99.90;;;;;;5092584;28;19924;-63
2022/07/08 00:58:07;;;;;;;;;;;14.10;99.90;;;;;;5091575;28;19965;-63
2022/07/08 01:00:32;;;;;;;;;;;14.20;99.90;;;;;;5091314;28;20257;-63
2022/07/08 01:02:58;;;;;;;;;;;14.20;99.90;;;;;;5092564;28;19927;-64
2022/07/08 01:05:24;;;;;;;;;;;13.90;99.90;;;;;;5092547;28;20018;-64
2022/07/08 01:07:49;;;;;;;;;;;13.70;99.90;;;;;;5092458;28;19920;-63
2022/07/08 01:10:15;;;;;;;;;;;14.00;99.90;;;;;;5092474;28;19954;-63
2022/07/08 01:12:40;;;;;;;;;;;14.00;99.90;;;;;;5092335;28;19924;-63
2022/07/08 01:15:06;;;;;;;;;;;13.70;99.90;;;;;;5092390;28;20356;-62
2022/07/08 01:17:44;;;;;;;;;;;13.60;99.90;;;;;;5092342;28;19920;-62
2022/07/08 01:20:11;;;;;;;;;;;13.80;99.90;;;;;;5092338;28;19927;-62
2022/07/08 01:22:36;;;;;;;;;;;13.40;99.90;;;;;;5092355;28;19920;-61
2022/07/08 01:25:03;;;;;;;;;;;13.60;99.90;;;;;;5091977;28;19942;-62
2022/07/08 01:27:28;;;;;;;;;;;13.20;99.90;;;;;;5092250;28;19924;-63
2022/07/08 01:29:54;;;;;;;;;;;13.60;99.90;;;;;;5092114;28;19924;-63
2022/07/08 01:32:20;;;;;;;;;;;13.40;99.90;;;;;;5092109;28;19942;-63
2022/07/08 01:34:45;;;;;;;;;;;13.40;99.90;;;;;;5092281;28;19927;-62
2022/07/08 01:37:11;;;;;;;;;;;13.20;99.90;;;;;;5094563;28;20011;-62
2022/07/08 01:39:36;;;;;;;;;;;13.10;99.90;;;;;;5096152;28;20387;-62
2022/07/08 01:42:02;;;;;;;;;;;13.50;99.90;;;;;;5096116;28;19920;-62
2022/07/08 01:44:27;;;;;;;;;;;13.30;99.90;;;;;;5096076;28;19972;-62
2022/07/08 01:46:53;;;;;;;;;;;13.20;99.90;;;;;;5096032;28;20030;-63
2022/07/08 01:49:20;;;;;;;;;;;13.10;99.90;;;;;;5077858;28;19924;-63
2022/07/08 01:51:45;;;;;;;;;;;13.10;99.90;;;;;;5095934;28;19919;-62
2022/07/08 01:54:11;;;;;;;;;;;13.20;99.90;;;;;;5096151;28;20283;-62
2022/07/08 01:56:37;;;;;;;;;;;13.20;99.90;;;;;;5095856;28;20332;-62
2022/07/08 01:59:02;;;;;;;;;;;12.90;99.90;;;;;;5095817;28;20380;-62
2022/07/08 02:01:28;;;;;;;;;;;13.20;99.90;;;;;;5095760;28;19920;-62
2022/07/08 02:03:53;;;;;;;;;;;13.20;99.90;;;;;;5095693;28;20295;-62
2022/07/08 02:06:19;;;;;;;;;;;13.40;99.90;;;;;;5095928;28;20044;-63
2022/07/08 02:08:44;;;;;;;;;;;13.10;99.90;;;;;;5095617;28;19924;-62
2022/07/08 02:13:54;;;;;;;;;;;13.40;99.90;;;;;;5095610;28;20015;-62
2022/07/08 02:16:20;;;;;;;;;;;13.20;99.90;;;;;;5095455;28;19983;-63
2022/07/08 02:18:45;;;;;;;;;;;13.10;99.90;;;;;;5095401;28;19927;-62
2022/07/08 02:21:11;;;;;;;;;;;13.10;99.90;;;;;;5095359;28;19923;-64
2022/07/08 02:23:37;;;;;;;;;;;12.90;99.90;;;;;;5094321;28;19926;-62
2022/07/08 02:26:02;;;;;;;;;;;13.10;99.90;;;;;;5095289;28;20244;-63
2022/07/08 02:28:28;;;;;;;;;;;13.40;99.90;;;;;;5093919;28;19935;-62
2022/07/08 02:30:53;;;;;;;;;;;13.40;99.90;;;;;;5093769;28;19924;-62
2022/07/08 02:33:19;;;;;;;;;;;13.90;99.90;;;;;;5095092;28;19920;-62
2022/07/08 02:35:44;;;;;;;;;;;13.20;99.90;;;;;;5095099;28;19946;-62
2022/07/08 02:38:10;;;;;;;;;;;13.10;99.90;;;;;;5094992;28;19946;-63
2022/07/08 02:40:35;;;;;;;;;;;13.40;99.90;;;;;;5094958;28;19988;-62
2022/07/08 02:43:01;;;;;;;;;;;13.20;99.90;;;;;;5094913;28;19986;-62
2022/07/08 02:45:26;;;;;;;;;;;13.50;99.90;;;;;;5093544;28;19927;-62
2022/07/08 02:47:52;;;;;;;;;;;13.60;99.90;;;;;;5093516;28;19963;-62
2022/07/08 02:50:18;;;;;;;;;;;13.20;99.90;;;;;;5094831;28;20379;-63
2022/07/08 02:52:43;;;;;;;;;;;13.60;99.90;;;;;;5093394;28;19934;-62
2022/07/08 02:55:09;;;;;;;;;;;13.80;99.90;;;;;;5094666;28;19920;-62
2022/07/08 02:57:34;;;;;;;;;;;13.80;99.90;;;;;;5094332;28;19923;-62
2022/07/08 03:00:00;;;;;;;;;;;13.80;99.90;;;;;;5094643;28;19924;-63
2022/07/08 03:02:25;;;;;;;;;;;13.60;99.90;;;;;;5094885;28;19931;-62
2022/07/08 03:04:53;;;;;;;;;;;13.80;99.90;;;;;;5094241;28;19920;-62
2022/07/08 03:07:19;;;;;;;;;;;13.50;99.90;;;;;;5093484;28;19924;-63
2022/07/08 03:09:44;;;;;;;;;;;13.60;99.90;;;;;;5094433;28;20049;-63
2022/07/08 03:12:10;;;;;;;;;;;13.40;99.90;;;;;;5094309;28;19924;-62
2022/07/08 03:14:35;;;;;;;;;;;13.70;99.90;;;;;;5094382;28;19924;-63
2022/07/08 03:17:01;;;;;;;;;;;13.70;99.90;;;;;;5094265;28;19924;-62
2022/07/08 03:19:26;;;;;;;;;;;13.40;99.90;;;;;;5094222;28;19927;-62
2022/07/08 03:21:52;;;;;;;;;;;13.80;99.90;;;;;;5093847;28;19968;-62
2022/07/08 03:24:18;;;;;;;;;;;13.70;99.90;;;;;;5094087;28;19927;-62
2022/07/08 03:26:43;;;;;;;;;;;13.60;99.90;;;;;;5093804;28;19924;-62
2022/07/08 03:29:09;;;;;;;;;;;13.70;99.90;;;;;;5093691;28;19927;-62
2022/07/08 03:31:34;;;;;;;;;;;13.70;99.90;;;;;;5093838;28;19920;-62
2022/07/08 03:34:00;;;;;;;;;;;14.40;99.90;;;;;;5092440;28;19977;-63
2022/07/08 03:36:26;;;;;;;;;;;13.80;99.90;;;;;;5093920;28;19930;-63
2022/07/08 03:38:52;;;;;;;;;;;14.10;99.90;;;;;;5093897;28;19920;-62
2022/07/08 03:41:20;;;;;;;;;;;14.70;99.90;;;;;;5094003;28;19973;-62
2022/07/08 03:43:49;;;;;;;;;;;14.50;99.90;;;;;;5094044;28;19927;-62
2022/07/08 03:46:15;;;;;;;;;;;14.20;99.90;;;;;;5093634;28;20368;-62
2022/07/08 03:48:41;;;;;;;;;;;14.40;99.90;;;;;;5093713;28;19920;-65
2022/07/08 03:51:07;;;;;;;;;;;14.30;99.90;;;;;;5093606;28;20417;-63
2022/07/08 03:53:32;;;;;;;;;;;14.30;99.90;;;;;;5093596;28;19920;-63
2022/07/08 03:55:58;;;;;;;;;;;14.70;99.90;;;;;;5093582;28;19927;-63
2022/07/08 03:58:23;;;;;;;;;;;14.60;99.90;;;;;;5093878;28;19932;-62
2022/07/08 04:00:49;;;;;;;;;;;14.70;99.90;;;;;;5092019;28;19920;-62
2022/07/08 04:03:15;;;;;;;;;;;14.30;99.90;;;;;;5093682;28;19926;-62
2022/07/08 04:05:40;;;;;;;;;;;14.80;99.90;;;;;;5092389;28;19920;-62
2022/07/08 04:08:06;;;;;;;;;;;14.80;99.90;;;;;;5093338;28;20078;-62
2022/07/08 04:10:31;;;;;;;;;;;14.70;99.90;;;;;;5093265;28;19924;-62
2022/07/08 04:12:57;;;;;;;;;;;15.00;99.90;;;;;;5093183;28;19931;-63
2022/07/08 04:15:22;;;;;;;;;;;14.80;99.90;;;;;;5093095;28;19970;-63
2022/07/08 04:17:48;;;;;;;;;;;14.80;99.90;;;;;;5093152;28;19920;-62
2022/07/08 04:20:14;;;;;;;;;;;15.00;99.90;;;;;;5093108;28;19931;-62
2022/07/08 04:22:39;;;;;;;;;;;14.50;99.90;;;;;;5093094;28;19934;-62
2022/07/08 04:25:06;;;;;;;;;;;15.10;99.90;;;;;;5093021;28;19920;-63
2022/07/08 04:27:31;;;;;;;;;;;15.00;99.90;;;;;;5092931;28;20399;-64
2022/07/08 04:29:57;;;;;;;;;;;14.90;99.90;;;;;;5092619;28;19923;-63
2022/07/08 04:32:22;;;;;;;;;;;15.30;99.90;;;;;;5092925;28;20370;-62
2022/07/08 04:34:48;;;;;;;;;;;15.00;99.90;;;;;;5092596;28;19924;-62
2022/07/08 04:37:14;;;;;;;;;;;15.00;99.90;;;;;;5092796;28;20026;-63
2022/07/08 04:39:39;;;;;;;;;;;15.40;99.90;;;;;;5092767;28;20010;-63
2022/07/08 04:42:05;;;;;;;;;;;15.00;99.90;;;;;;5092735;28;19929;-63
2022/07/08 04:44:31;;;;;;;;;;;15.30;99.90;;;;;;5092754;28;19919;-63
2022/07/08 04:46:56;;;;;;;;;;;15.50;99.90;;;;;;5092756;28;19924;-62
2022/07/08 04:49:24;;;;;;;;;;;15.20;99.90;;;;;;5092647;28;20287;-63
2022/07/08 04:51:50;;;;;;;;;;;15.50;99.90;;;;;;5092531;28;19997;-62
2022/07/08 04:54:16;;;;;;;;;;;15.40;99.90;;;;;;5092628;28;19920;-63
2022/07/08 04:56:41;;;;;;;;;;;15.20;99.90;;;;;;5091574;28;20360;-63
2022/07/08 04:59:08;;;;;;;;;;;15.40;99.90;;;;;;5092508;28;19923;-64
2022/07/08 05:01:34;;;;;;;;;;;15.60;99.90;;;;;;5092499;28;19923;-63
2022/07/08 05:03:59;;;;;;;;;;;15.50;99.90;;;;;;5092522;28;19949;-63
2022/07/08 05:06:25;;;;;;;;;;;15.50;99.90;;;;;;5092459;28;19982;-62
2022/07/08 05:08:50;;;;;;;;;;;15.80;99.90;;;;;;5092476;28;19924;-62
2022/07/08 05:11:16;;;;;;;;;;;15.80;99.90;;;;;;5093198;28;19935;-63
2022/07/08 05:13:41;;;;;;;;;;;15.70;99.90;;;;;;5096711;28;19924;-63
2022/07/08 05:16:07;;;;;;;;;;;15.80;99.90;;;;;;5096900;28;19924;-64
2022/07/08 05:18:32;;;;;;;;;;;15.60;99.90;;;;;;5096865;28;20275;-63
2022/07/08 05:20:58;;;;;;;;;;;15.70;99.90;;;;;;5096461;28;19927;-63
2022/07/08 05:23:23;;;;;;;;;;;15.90;99.90;;;;;;5096507;28;19924;-61
2022/07/08 05:25:49;;;;;;;;;;;16.00;99.90;;;;;;5096375;28;19971;-63
2022/07/08 05:28:15;;;;;;;;;;;15.90;99.90;;;;;;5095078;28;20364;-62
2022/07/08 05:30:40;;;;;;;;;;;15.90;99.90;;;;;;5096106;28;20018;-62
2022/07/08 05:33:06;;;;;;;;;;;15.90;99.90;;;;;;5096539;28;19972;-62
2022/07/08 05:35:31;;;;;;;;;;;16.00;99.90;;;;;;5096485;28;20356;-62
2022/07/08 05:37:57;;;;;;;;;;;16.40;99.90;;;;;;5096433;28;19931;-63
2022/07/08 05:40:23;;;;;;;;;;;15.90;99.90;;;;;;5096244;28;19923;-64
2022/07/08 05:42:48;;;;;;;;;;;16.40;99.90;;;;;;5096136;28;19920;-63
2022/07/08 05:45:14;;;;;;;;;;;16.00;99.90;;;;;;5096090;28;19988;-63
2022/07/08 05:47:39;;;;;;;;;;;16.30;99.90;;;;;;5096072;28;20032;-62
2022/07/08 05:50:05;;;;;;;;;;;16.40;99.90;;;;;;5096001;28;19927;-62
2022/07/08 05:52:31;;;;;;;;;;;16.60;99.90;;;;;;5095922;28;19920;-62
2022/07/08 05:54:57;;;;;;;;;;;16.20;99.90;;;;;;5095893;28;19920;-60
2022/07/08 05:57:22;;;;;;;;;;;16.20;99.90;;;;;;5096130;28;20359;-63
2022/07/08 05:59:50;;;;;;;;;;;16.50;99.90;;;;;;5095866;28;19933;-64
2022/07/08 06:02:16;;;;;;;;;;;16.30;99.90;;;;;;5095439;28;20359;-63
2022/07/08 06:04:41;;;;;;;;;;;16.30;99.90;;;;;;5095727;28;19920;-62
2022/07/08 06:07:07;;;;;;;;;;;16.40;99.90;;;;;;5095668;28;19924;-62
2022/07/08 06:09:33;;;;;;;;;;;16.80;99.90;;;;;;5095548;28;19924;-63
2022/07/08 06:11:59;;;;;;;;;;;16.50;99.90;;;;;;5095584;28;19920;-63
2022/07/08 06:14:24;;;;;;;;;;;16.50;99.90;;;;;;5095563;28;19928;-63
2022/07/08 06:16:50;;;;;;;;;;;16.30;99.90;;;;;;5095446;28;19923;-63
2022/07/08 06:19:15;;;;;;;;;;;16.50;99.90;;;;;;5095376;28;19971;-63
2022/07/08 06:21:41;;;;;;;;;;;16.50;99.90;;;;;;5095420;28;19920;-62
2022/07/08 06:24:07;;;;;;;;;;;16.40;99.90;;;;;;5095257;28;20014;-63
2022/07/08 06:26:32;;;;;;;;;;;16.40;99.90;;;;;;5095366;28;19924;-63
2022/07/08 06:28:58;;;;;;;;;;;16.70;99.90;;;;;;5095237;28;19924;-64
2022/07/08 06:31:24;;;;;;;;;;;17.20;99.90;;;;;;5093661;28;20057;-63
2022/07/08 06:33:56;;;;;;;;;;;17.40;99.90;;;;;;5095115;28;20014;-62
2022/07/08 06:36:24;;;;;;;;;;;17.10;99.90;;;;;;5095259;28;19924;-63
2022/07/08 06:38:51;;;;;;;;;;;17.30;99.90;;;;;;5095085;28;20299;-62
2022/07/08 06:41:16;;;;;;;;;;;17.30;99.90;;;;;;5095010;28;19975;-62
2022/07/08 06:43:43;;;;;;;;;;;17.60;99.90;;;;;;5094948;28;19967;-63
2022/07/08 06:46:09;;;;;;;;;;;17.50;99.90;;;;;;5094943;28;20022;-62
2022/07/08 06:48:34;;;;;;;;;;;17.40;99.90;;;;;;5094900;28;19965;-62
2022/07/08 06:51:00;;;;;;;;;;;17.50;99.90;;;;;;5093568;28;20274;-62
2022/07/08 06:53:25;;;;;;;;;;;17.70;99.90;;;;;;5094739;28;19965;-63
2022/07/08 06:55:51;;;;;;;;;;;17.70;99.90;;;;;;5094785;28;19920;-62
2022/07/08 06:58:16;;;;;;;;;;;17.80;99.90;;;;;;5093510;28;19924;-63
2022/07/08 07:00:42;;;;;;;;;;;17.70;99.90;;;;;;5094667;28;19969;-64
2022/07/08 07:03:08;;;;;;;;;;;17.70;99.90;;;;;;5094595;28;20385;-63
2022/07/08 07:05:33;;;;;;;;;;;17.90;99.90;;;;;;5094240;28;20372;-63
2022/07/08 07:07:59;;;;;;;;;;;17.60;99.90;;;;;;5094857;28;19946;-63
2022/07/08 07:10:25;;;;;;;;;;;17.70;99.90;;;;;;5094432;28;20317;-62
2022/07/08 07:12:50;;;;;;;;;;;18.10;99.90;;;;;;5094343;28;19973;-62
2022/07/08 07:15:16;;;;;;;;;;;17.90;99.90;;;;;;5094374;28;19920;-62
2022/07/08 07:17:42;;;;;;;;;;;17.90;99.90;;;;;;5094316;28;19920;-63
2022/07/08 07:20:08;;;;;;;;;;;17.90;99.90;;;;;;5094431;28;19927;-62
2022/07/08 07:22:34;;;;;;;;;;;18.20;99.90;;;;;;5094315;28;20036;-62
2022/07/08 07:25:00;;;;;;;;;;;18.10;99.90;;;;;;5094479;28;19966;-62
2022/07/08 07:27:25;;;;;;;;;;;17.90;99.90;;;;;;5093291;28;20339;-62
2022/07/08 07:29:51;;;;;;;;;;;18.60;99.90;;;;;;5094133;28;19920;-61
2022/07/08 07:32:17;;;;;;;;;;;18.20;99.90;;;;;;5093939;28;19999;-62
2022/07/08 07:34:42;;;;;;;;;;;18.00;99.90;;;;;;5093419;28;19920;-62
2022/07/08 07:37:08;;;;;;;;;;;18.40;99.90;;;;;;5094026;28;19996;-62
2022/07/08 07:39:33;;;;;;;;;;;18.40;99.90;;;;;;5094246;28;19939;-62
2022/07/08 07:41:59;;;;;;;;;;;18.30;99.90;;;;;;5093856;28;19924;-63
2022/07/08 07:44:25;;;;;;;;;;;18.10;99.90;;;;;;5093786;28;19982;-63
2022/07/08 07:46:50;;;;;;;;;;;18.60;99.90;;;;;;5093851;28;19963;-63
2022/07/08 07:49:16;;;;;;;;;;;18.20;99.90;;;;;;5093714;28;20013;-62
2022/07/08 07:51:42;;;;;;;;;;;18.40;99.90;;;;;;5093662;28;19965;-62
2022/07/08 07:54:07;;;;;;;;;;;18.60;99.90;;;;;;5093630;28;20073;-63
2022/07/08 07:56:33;;;;;;;;;;;18.70;99.90;;;;;;5093601;28;20071;-63
2022/07/08 07:58:59;;;;;;;;;;;18.90;99.90;;;;;;5093517;28;19924;-64
2022/07/08 08:01:24;;;;;;;;;;;18.70;99.90;;;;;;5093479;28;19924;-63
2022/07/08 08:03:50;;;;;;;;;;;18.70;99.90;;;;;;5093692;28;20034;-62
2022/07/08 08:06:16;;;;;;;;;;;18.90;99.90;;;;;;5092194;28;19928;-62
2022/07/08 08:08:41;;;;;;;;;;;18.90;99.90;;;;;;5093313;28;19931;-63
2022/07/08 08:11:07;;;;;;;;;;;18.90;99.90;;;;;;5093306;28;19972;-63
2022/07/08 08:13:32;;;;;;;;;;;19.10;99.90;;;;;;5093191;28;19920;-63
2022/07/08 08:15:58;;;;;;;;;;;19.20;99.90;;;;;;5093185;28;19963;-62
2022/07/08 08:18:23;;;;;;;;;;;19.30;99.90;;;;;;5093205;28;19931;-62
2022/07/08 08:20:49;;;;;;;;;;;18.90;99.90;;;;;;5092862;28;19924;-64
2022/07/08 08:23:14;;;;;;;;;;;19.20;99.90;;;;;;5093112;28;19974;-63
2022/07/08 08:25:42;;;;;;;;;;;19.30;99.90;;;;;;5091801;28;19920;-62
2022/07/08 08:28:07;;;;;;;;;;;19.10;99.90;;;;;;5093000;28;20382;-63
2022/07/08 08:30:33;;;;;;;;;;;18.80;99.90;;;;;;5092499;28;20002;-62
2022/07/08 08:32:58;;;;;;;;;;;19.20;99.90;;;;;;5092904;28;19920;-62
2022/07/08 08:35:24;;;;;;;;;;;19.10;99.90;;;;;;5092874;28;20288;-62
2022/07/08 08:37:50;;;;;;;;;;;19.40;99.90;;;;;;5092873;28;20011;-62
2022/07/08 08:40:18;;;;;;;;;;;19.40;99.90;;;;;;5092832;28;19926;-62
2022/07/08 08:42:44;;;;;;;;;;;19.60;99.90;;;;;;5092745;28;20384;-62
2022/07/08 08:45:10;;;;;;;;;;;19.30;99.90;;;;;;5092411;28;19967;-62
2022/07/08 08:47:36;;;;;;;;;;;19.30;99.90;;;;;;5092203;28;19963;-62
2022/07/08 08:52:49;;;;;;;;;;;19.30;99.90;;;;;;5092673;28;19927;-62
2022/07/08 08:55:23;;;;;;;;;;;19.60;99.90;;;;;;5092657;28;19924;-63
2022/07/08 08:57:49;;;;;;;;;;;19.50;99.90;;;;;;5092681;28;20352;-62
2022/07/08 09:00:14;;;;;;;;;;;19.70;99.90;;;;;;5092628;28;19983;-63
2022/07/08 09:02:40;;;;;;;;;;;19.90;99.90;;;;;;5092622;28;19942;-63
2022/07/08 09:05:06;;;;;;;;;;;19.90;99.90;;;;;;5092549;28;19923;-63
2022/07/08 09:07:32;;;;;;;;;;;19.90;99.90;;;;;;5092432;28;19927;-62
2022/07/08 09:09:57;;;;;;;;;;;19.70;99.90;;;;;;5074689;28;19920;-63
2022/07/08 09:12:25;;;;;;;;;;;19.80;99.90;;;;;;5092401;28;19981;-62
2022/07/08 09:14:51;;;;;;;;;;;19.80;99.90;;;;;;5092552;28;19924;-63
2022/07/08 09:17:17;;;;;;;;;;;19.90;99.90;;;;;;5092757;28;19920;-65
2022/07/08 09:19:43;;;;;;;;;;;19.70;99.90;;;;;;5092467;28;20017;-63
2022/07/08 09:22:09;;;;;;;;;;;19.70;99.90;;;;;;5091157;28;19920;-63
2022/07/08 09:24:36;;;;;;;;;;;19.80;99.90;;;;;;5092376;28;20304;-64
2022/07/08 09:27:02;;;;;;;;;;;19.70;99.90;;;;;;5092393;28;20004;-63
2022/07/08 09:29:27;;;;;;;;;;;20.00;99.90;;;;;;5092303;28;19920;-63
2022/07/08 09:31:53;;;;;;;;;;;20.20;99.90;;;;;;5092168;28;19920;-63
2022/07/08 09:34:21;;;;;;;;;;;20.30;99.90;;;;;;5092368;28;19926;-63
2022/07/08 09:36:48;;;;;;;;;;;19.80;99.90;;;;;;5092210;28;19924;-64
2022/07/08 09:39:26;;;;;;;;;;;20.00;99.90;;;;;;5091882;28;20375;-63
2022/07/08 09:41:52;;;;;;;;;;;20.70;99.90;;;;;;5092246;28;19928;-64
2022/07/08 09:44:19;;;;;;;;;;;20.60;99.90;;;;;;5092226;28;19920;-63
2022/07/08 09:46:45;;;;;;;;;;;20.50;99.90;;;;;;5092192;28;20280;-62
2022/07/08 09:49:33;;;;;;;;;;;20.60;99.90;;;;;;5092098;28;20292;-62
2022/07/08 09:51:59;;;;;;;;;;;20.50;99.90;;;;;;5090704;28;19920;-63
2022/07/08 09:54:25;;;;;;;;;;;20.10;99.90;;;;;;5091739;28;19930;-62
2022/07/08 09:56:57;;;;;;;;;;;20.50;99.90;;;;;;5091903;28;20322;-63
2022/07/08 09:59:23;;;;;;;;;;;20.40;99.90;;;;;;5094814;28;20014;-63
2022/07/08 10:01:50;;;;;;;;;;;20.50;99.90;;;;;;5095864;28;20006;-63
2022/07/08 10:04:16;;;;;;;;;;;20.80;99.90;;;;;;5095823;28;19935;-62
2022/07/08 10:06:42;;;;;;;;;;;20.40;99.90;;;;;;5095722;28;19920;-62
2022/07/08 10:09:07;;;;;;;;;;;20.70;99.90;;;;;;5095686;28;19923;-62
2022/07/08 10:11:33;;;;;;;;;;;20.70;99.90;;;;;;5095523;28;19924;-62
2022/07/08 10:13:59;;;;;;;;;;;20.90;99.90;;;;;;5095635;28;19969;-62
2022/07/08 10:16:25;;;;;;;;;;;21.00;99.90;;;;;;5095592;28;19920;-62
2022/07/08 10:18:51;;;;;;;;;;;21.00;99.90;;;;;;5095198;28;19923;-63
2022/07/08 10:21:20;;;;;;;;;;;21.10;99.90;;;;;;5095520;28;19927;-62
2022/07/08 10:23:48;;;;;;;;;;;21.00;99.90;;;;;;5095500;28;20410;-65
2022/07/08 10:26:17;;;;;;;;;;;21.20;99.90;;;;;;5095371;28;19920;-62
2022/07/08 10:28:42;;;;;;;;;;;20.90;99.90;;;;;;5094165;28;19950;-62
2022/07/08 10:31:19;;;;;;;;;;;20.90;99.90;;;;;;5095255;28;19972;-62
2022/07/08 10:33:48;;;;;;;;;;;21.10;99.90;;;;;;5093889;28;19931;-64
2022/07/08 10:36:17;;;;;;;;;;;21.20;99.90;;;;;;5095149;28;19924;-62
2022/07/08 10:38:43;;;;;;;;;;;20.90;99.90;;;;;;5095147;28;19920;-62
2022/07/08 10:41:13;;;;;;;;;;;21.30;99.90;;;;;;5095037;28;20014;-62
2022/07/08 10:43:52;;;;;;;;;;;20.50;99.90;;;;;;5094990;28;19919;-62
2022/07/08 10:46:18;;;;;;;;;;;21.00;99.90;;;;;;5094944;28;19927;-62
2022/07/08 10:48:44;;;;;;;;;;;21.20;99.90;;;;;;5094639;28;20372;-62
2022/07/08 10:51:19;;;;;;;;;;;21.40;99.90;;;;;;5094912;28;19920;-62
2022/07/08 10:53:45;;;;;;;;;;;21.40;99.90;;;;;;5094734;28;19927;-62
2022/07/08 10:56:11;;;;;;;;;;;21.70;99.90;;;;;;5094747;28;19938;-64
2022/07/08 10:58:55;;;;;;;;;;;21.30;99.90;;;;;;5094821;28;20284;-62
2022/07/08 11:01:23;;;;;;;;;;;21.70;99.90;;;;;;5093476;28;19993;-64
2022/07/08 11:03:49;;;;;;;;;;;22.20;99.90;;;;;;5093418;28;20283;-62
2022/07/08 11:06:32;;;;;;;;;;;21.70;99.90;;;;;;5094720;28;20023;-62
2022/07/08 11:09:01;;;;;;;;;;;21.90;99.90;;;;;;5093089;28;19920;-63
2022/07/08 11:11:27;;;;;;;;;;;21.80;99.90;;;;;;5094562;28;19924;-63
2022/07/08 11:13:54;;;;;;;;;;;21.80;99.90;;;;;;5094534;28;20326;-63
2022/07/08 11:16:20;;;;;;;;;;;22.30;99.90;;;;;;5094381;28;19920;-62
2022/07/08 11:18:45;;;;;;;;;;;21.80;99.90;;;;;;5093406;28;19920;-62
2022/07/08 11:21:11;;;;;;;;;;;21.50;99.90;;;;;;5094337;28;19920;-62
2022/07/08 11:23:37;;;;;;;;;;;21.60;99.90;;;;;;5094274;28;19923;-64
2022/07/08 11:26:02;;;;;;;;;;;21.80;99.90;;;;;;5094272;28;19924;-65
2022/07/08 11:28:28;;;;;;;;;;;21.30;99.90;;;;;;5094234;28;19920;-63
2022/07/08 11:30:54;;;;;;;;;;;21.80;99.90;;;;;;5093868;28;19965;-63
2022/07/08 11:33:36;;;;;;;;;;;22.20;99.90;;;;;;5093693;28;20007;-62
2022/07/08 11:36:10;;;;;;;;;;;22.10;99.90;;;;;;5094097;28;19978;-65
2022/07/08 11:38:37;;;;;;;;;;;21.90;99.90;;;;;;5094056;28;19981;-62
2022/07/08 11:41:02;;;;;;;;;;;21.90;99.90;;;;;;5093861;28;20014;-63
2022/07/08 11:43:28;;;;;;;;;;;21.70;99.90;;;;;;5093842;28;20328;-62
2022/07/08 11:45:54;;;;;;;;;;;21.60;99.90;;;;;;5093871;28;19928;-64
2022/07/08 11:48:19;;;;;;;;;;;21.30;99.90;;;;;;5092526;28;19975;-63
2022/07/08 11:50:48;;;;;;;;;;;21.70;99.90;;;;;;5093732;28;19920;-63
2022/07/08 11:53:21;;;;;;;;;;;21.80;99.90;;;;;;5093648;28;19931;-65
2022/07/08 11:55:46;;;;;;;;;;;22.20;99.90;;;;;;5093887;28;19920;-63
2022/07/08 11:58:20;;;;;;;;;;;22.10;99.90;;;;;;5093875;28;20004;-63
2022/07/08 12:00:46;;;;;;;;;;;22.10;99.90;;;;;;5093620;28;19920;-63
2022/07/08 12:03:13;;;;;;;;;;;21.80;99.90;;;;;;5093472;28;19924;-63
2022/07/08 12:05:38;;;;;;;;;;;21.90;99.90;;;;;;5093432;28;19920;-63
2022/07/08 12:08:11;;;;;;;;;;;22.20;99.90;;;;;;5092155;28;20265;-63
2022/07/08 12:10:37;;;;;;;;;;;22.10;99.90;;;;;;5093356;28;19920;-63
2022/07/08 12:13:02;;;;;;;;;;;22.60;99.90;;;;;;5093272;28;20421;-63
2022/07/08 12:15:35;;;;;;;;;;;22.60;99.90;;;;;;5093203;28;20020;-63
2022/07/08 12:18:00;;;;;;;;;;;22.90;99.90;;;;;;5093314;28;20077;-65
2022/07/08 12:20:32;;;;;;;;;;;22.70;99.90;;;;;;5093097;28;19963;-63
2022/07/08 12:22:58;;;;;;;;;;;22.40;99.90;;;;;;5093147;28;19931;-63
2022/07/08 12:25:24;;;;;;;;;;;22.30;99.90;;;;;;5093099;28;19924;-63
2022/07/08 12:27:57;;;;;;;;;;;22.60;99.90;;;;;;5093100;28;19920;-63
2022/07/08 12:30:27;;;;;;;;;;;22.60;99.90;;;;;;5093052;28;20018;-64
2022/07/08 12:32:57;;;;;;;;;;;22.50;99.90;;;;;;5091781;28;20264;-64
2022/07/08 12:35:29;;;;;;;;;;;23.20;99.90;;;;;;5092983;28;19927;-64
2022/07/08 12:38:07;;;;;;;;;;;23.20;99.90;;;;;;5093022;28;19924;-63
2022/07/08 12:40:36;;;;;;;;;;;23.40;99.90;;;;;;5091606;28;19977;-63
2022/07/08 12:43:03;;;;;;;;;;;23.20;99.90;;;;;;5092838;28;19975;-63
2022/07/08 12:45:29;;;;;;;;;;;23.40;99.90;;;;;;5092794;28;19926;-63
2022/07/08 12:47:54;;;;;;;;;;;23.40;99.90;;;;;;5092818;28;19924;-63
2022/07/08 12:50:20;;;;;;;;;;;23.40;99.90;;;;;;5091543;28;19924;-63
2022/07/08 12:52:46;;;;;;;;;;;23.20;99.90;;;;;;5092698;28;19967;-63
2022/07/08 12:55:12;;;;;;;;;;;23.20;99.90;;;;;;5092762;28;19982;-63
2022/07/08 12:57:37;;;;;;;;;;;23.50;99.90;;;;;;5092817;28;20265;-62
2022/07/08 13:00:03;;;;;;;;;;;23.80;99.90;;;;;;5092967;28;19993;-65
2022/07/08 13:02:29;;;;;;;;;;;23.40;99.90;;;;;;5092665;28;19960;-64
2022/07/08 13:04:54;;;;;;;;;;;23.40;99.90;;;;;;5092656;28;20364;-63
2022/07/08 13:07:20;;;;;;;;;;;23.50;99.90;;;;;;5092527;28;19946;-63
2022/07/08 13:09:46;;;;;;;;;;;23.50;99.90;;;;;;5092554;28;19920;-63
2022/07/08 13:12:11;;;;;;;;;;;23.70;99.90;;;;;;5092397;28;20244;-63
2022/07/08 13:14:37;;;;;;;;;;;24.10;99.90;;;;;;5092435;28;19927;-63
2022/07/08 13:17:02;;;;;;;;;;;24.00;99.90;;;;;;5092455;28;19924;-63
2022/07/08 13:19:28;;;;;;;;;;;23.80;99.90;;;;;;5092505;28;19924;-64
2022/07/08 13:21:55;;;;;;;;;;;23.50;99.90;;;;;;5092725;28;20410;-63
2022/07/08 13:24:20;;;;;;;;;;;23.60;99.90;;;;;;5092344;28;19920;-64
2022/07/08 13:26:46;;;;;;;;;;;23.10;99.90;;;;;;5092355;28;19920;-63
2022/07/08 13:29:11;;;;;;;;;;;23.60;99.90;;;;;;5092307;28;19927;-63
2022/07/08 13:31:37;;;;;;;;;;;23.10;99.90;;;;;;5091849;28;19920;-63
2022/07/08 13:34:03;;;;;;;;;;;23.40;99.90;;;;;;5096202;28;19959;-64
2022/07/08 13:36:29;;;;;;;;;;;23.40;99.90;;;;;;5096338;28;19924;-64
2022/07/08 13:38:54;;;;;;;;;;;23.00;99.90;;;;;;5096538;28;19931;-64
2022/07/08 13:41:20;;;;;;;;;;;23.10;99.90;;;;;;5096289;28;19923;-63
2022/07/08 13:43:45;;;;;;;;;;;22.70;99.90;;;;;;5096224;28;19928;-64
2022/07/08 13:46:11;;;;;;;;;;;22.80;99.90;;;;;;5095141;28;19946;-64
2022/07/08 13:48:37;;;;;;;;;;;23.00;99.90;;;;;;5096134;28;20006;-63
2022/07/08 13:51:03;;;;;;;;;;;22.70;99.90;;;;;;5096066;28;19970;-64
2022/07/08 13:53:31;;;;;;;;;;;22.70;99.90;;;;;;5095859;28;20011;-65
2022/07/08 13:55:57;;;;;;;;;;;22.80;99.90;;;;;;5095990;28;20261;-64
2022/07/08 13:58:23;;;;;;;;;;;22.60;99.90;;;;;;5095944;28;20010;-62
2022/07/08 14:00:48;;;;;;;;;;;23.10;99.90;;;;;;5095961;28;19924;-63
2022/07/08 14:03:14;;;;;;;;;;;22.70;99.90;;;;;;5095480;28;19978;-64
2022/07/08 14:05:39;;;;;;;;;;;22.70;99.90;;;;;;5095677;28;19920;-64
2022/07/08 14:08:05;;;;;;;;;;;22.20;99.90;;;;;;5077597;28;19971;-64
2022/07/08 14:10:31;;;;;;;;;;;22.50;99.90;;;;;;5095675;28;20384;-62
2022/07/08 14:12:57;;;;;;;;;;;22.40;99.90;;;;;;5095534;28;20284;-62
2022/07/08 14:15:22;;;;;;;;;;;22.40;99.90;;;;;;5095538;28;19949;-63
2022/07/08 14:17:48;;;;;;;;;;;22.40;99.90;;;;;;5095252;28;19920;-63